createdAt,value
2023-01-02T00:02:21.633Z,316.85
2023-01-02T00:05:03.156Z,324.90
2023-01-02T00:07:53.268Z,303.38
2023-01-02T00:10:35.671Z,311.02
2023-01-02T00:13:24.137Z,317.30
2023-01-02T00:16:06.559Z,313.40
2023-01-02T00:18:55.237Z,304.00
2023-01-02T00:21:44.206Z,302.52
2023-01-02T00:24:33.196Z,312.15
2023-01-02T00:27:22.428Z,316.95
2023-01-02T00:30:04.932Z,313.10
2023-01-02T00:32:54.243Z,306.52
2023-01-02T00:35:46.581Z,309.70
2023-01-02T00:38:29.297Z,341.90
2023-01-02T00:41:11.786Z,330.73
2023-01-02T00:44:00.195Z,331.25
2023-01-02T00:46:55.155Z,332.67
2023-01-02T00:49:44.305Z,318.27
2023-01-02T00:52:26.557Z,327.33
2023-01-02T00:55:15.295Z,324.83
2023-01-02T00:57:57.505Z,309.95
2023-01-02T01:00:46.320Z,319.50
2023-01-02T01:03:28.742Z,330.83
2023-01-02T01:06:18.249Z,331.25
2023-01-02T01:09:07.484Z,355.65
2023-01-02T01:11:55.514Z,348.85
2023-01-02T01:14:38.216Z,339.88
2023-01-02T01:17:27.492Z,338.85
2023-01-02T01:20:09.280Z,346.55
2023-01-02T01:22:58.228Z,332.02
2023-01-02T01:25:47.204Z,346.77
2023-01-02T01:28:36.107Z,344.55
2023-01-02T01:31:21.628Z,334.35
2023-01-02T01:34:10.345Z,337.17
2023-01-02T01:36:52.459Z,344.33
2023-01-02T01:39:41.313Z,344.08
2023-01-02T01:42:24.583Z,339.08
2023-01-02T01:45:22.609Z,328.88
2023-01-02T01:48:08.558Z,332.33
2023-01-02T01:50:57.272Z,349.98
2023-01-02T01:53:40.491Z,342.35
2023-01-02T01:56:29.090Z,351.10
2023-01-02T01:59:18.191Z,373.92
2023-01-02T02:02:06.720Z,363.10
2023-01-02T02:04:52.109Z,370.48
2023-01-02T02:07:50.085Z,395.23
2023-01-02T02:10:38.480Z,404.55
2023-01-02T02:13:21.140Z,431.25
2023-01-02T02:16:38.463Z,457.42
2023-01-02T02:19:45.117Z,456.48
2023-01-02T02:23:09.171Z,469.73
2023-01-02T02:26:36.084Z,468.77
2023-01-02T02:30:03.213Z,466.55
2023-01-02T02:33:28.156Z,459.52
2023-01-02T02:36:38.205Z,451.55
2023-01-02T02:39:32.515Z,452.58
2023-01-02T02:42:50.068Z,448.48
2023-01-02T02:45:50.478Z,396.42
2023-01-02T02:48:59.121Z,429.42
2023-01-02T02:52:11.262Z,419.42
2023-01-02T02:55:09.121Z,449.08
2023-01-02T02:58:00.245Z,417.98
2023-01-02T03:00:42.439Z,493.98
2023-01-02T03:03:37.222Z,449.27
2023-01-02T03:06:26.256Z,460.85
2023-01-02T03:09:25.496Z,472.80
2023-01-02T03:12:28.212Z,501.83
2023-01-02T03:15:37.529Z,489.40
2023-01-02T03:18:42.176Z,492.17
2023-01-02T03:22:00.078Z,501.52
2023-01-02T03:24:52.082Z,501.67
2023-01-02T03:27:42.514Z,540.50
2023-01-02T03:30:31.321Z,501.90
2023-01-02T03:33:26.100Z,485.17
2023-01-02T03:36:22.484Z,418.42
2023-01-02T03:39:17.269Z,453.70
2023-01-02T03:42:01.211Z,419.50
2023-01-02T03:44:57.250Z,449.90
2023-01-02T03:48:04.058Z,482.48
2023-01-02T03:51:01.164Z,472.40
2023-01-02T03:53:53.171Z,541.35
2023-01-02T03:57:01.208Z,596.75
2023-01-02T04:00:13.113Z,455.33
2023-01-02T04:03:06.301Z,475.35
2023-01-02T04:06:13.158Z,469.05
2023-01-02T04:09:17.534Z,513.78
2023-01-02T04:15:11.503Z,509.02
2023-01-02T04:18:20.115Z,486.90
2023-01-02T04:21:10.641Z,406.88
2023-01-02T04:24:09.058Z,429.92
2023-01-02T04:27:21.472Z,433.90
2023-01-02T04:30:05.192Z,419.90
2023-01-02T04:32:55.467Z,419.42
2023-01-02T04:35:38.304Z,399.73
2023-01-02T04:38:20.298Z,411.67
2023-01-02T04:41:09.074Z,476.80
2023-01-02T04:43:58.096Z,384.48
2023-01-02T04:46:40.448Z,458.15
2023-01-02T04:49:35.139Z,519.28
2023-01-02T04:52:24.225Z,609.65
2023-01-02T04:55:07.336Z,505.52
2023-01-02T04:57:56.192Z,566.08
2023-01-02T05:00:38.683Z,576.35
2023-01-02T05:03:27.295Z,506.13
2023-01-02T05:06:09.523Z,490.40
2023-01-02T05:08:58.209Z,457.10
2023-01-02T05:11:40.446Z,429.25
2023-01-02T05:14:29.240Z,393.23
2023-01-02T05:17:11.513Z,402.92
2023-01-02T05:20:00.249Z,397.05
2023-01-02T05:23:07.141Z,390.90
2023-01-02T05:25:49.517Z,412.77
2023-01-02T05:28:38.824Z,407.17
2023-01-02T05:31:22.808Z,377.33
2023-01-02T05:34:13.230Z,365.67
2023-01-02T05:37:02.054Z,364.80
2023-01-02T05:39:51.277Z,433.35
2023-01-02T05:42:39.499Z,419.52
2023-01-02T05:45:22.196Z,407.10
2023-01-02T05:48:10.433Z,434.15
2023-01-02T05:50:52.232Z,427.50
2023-01-02T05:53:41.186Z,482.17
2023-01-02T05:56:25.454Z,484.92
2023-01-02T05:59:16.192Z,479.70
2023-01-02T06:01:58.616Z,478.00
2023-01-02T06:04:47.161Z,485.15
2023-01-02T06:07:29.411Z,478.48
2023-01-02T06:10:18.221Z,454.90
2023-01-02T06:13:00.505Z,454.88
2023-01-02T06:15:49.317Z,445.30
2023-01-02T06:18:32.522Z,447.35
2023-01-02T06:24:05.454Z,410.77
2023-01-02T06:26:54.107Z,428.77
2023-01-02T06:29:44.175Z,408.92
2023-01-02T06:32:33.169Z,424.58
2023-01-02T06:35:15.437Z,381.25
2023-01-02T06:38:04.173Z,387.05
2023-01-02T06:40:46.439Z,390.60
2023-01-02T06:43:36.210Z,360.27
2023-01-02T06:46:20.469Z,385.80
2023-01-02T06:49:09.115Z,398.00
2023-01-02T06:51:58.124Z,412.08
2023-01-02T06:54:47.167Z,376.75
2023-01-02T06:57:36.098Z,398.23
2023-01-02T07:00:26.267Z,398.42
2023-01-02T07:03:08.416Z,407.38
2023-01-02T07:05:57.225Z,351.02
2023-01-02T07:08:40.522Z,323.42
2023-01-02T07:11:32.229Z,376.27
2023-01-02T07:14:14.482Z,357.58
2023-01-02T07:17:03.249Z,360.60
2023-01-02T07:19:51.453Z,350.05
2023-01-02T07:22:42.161Z,356.90
2023-01-02T07:25:24.505Z,395.27
2023-01-02T07:28:13.204Z,380.77
2023-01-02T07:30:55.501Z,392.40
2023-01-02T07:33:44.237Z,380.60
2023-01-02T07:36:27.559Z,394.73
2023-01-02T07:39:17.556Z,395.90
2023-01-02T07:41:59.544Z,415.08
2023-01-02T07:44:48.228Z,439.85
2023-01-02T07:47:30.429Z,432.67
2023-01-02T07:50:25.438Z,445.05
2023-01-02T07:53:13.505Z,415.08
2023-01-02T07:56:02.130Z,409.15
2023-01-02T07:58:51.286Z,421.00
2023-01-02T08:01:33.478Z,386.75
2023-01-02T08:04:22.323Z,385.75
2023-01-02T08:07:04.444Z,344.30
2023-01-02T08:09:53.118Z,332.10
2023-01-02T08:12:36.475Z,363.17
2023-01-02T08:15:25.512Z,353.73
2023-01-02T08:18:14.156Z,357.40
2023-01-02T08:21:04.523Z,334.38
2023-01-02T08:23:47.255Z,363.02
2023-01-02T08:26:35.449Z,370.15
2023-01-02T08:29:18.230Z,356.08
2023-01-02T08:32:07.494Z,345.00
2023-01-02T08:34:49.177Z,328.58
2023-01-02T08:37:31.334Z,322.42
2023-01-02T08:40:21.005Z,322.58
2023-01-02T08:43:03.310Z,307.33
2023-01-02T08:45:52.165Z,331.58
2023-01-02T08:48:48.077Z,333.02
2023-01-02T08:51:37.015Z,327.83
2023-01-02T08:54:26.122Z,320.27
2023-01-02T08:57:14.443Z,338.60
2023-01-02T08:59:57.209Z,353.38
2023-01-02T09:02:46.666Z,358.80
2023-01-02T09:05:30.183Z,366.65
2023-01-02T09:08:18.580Z,340.05
2023-01-02T09:11:01.162Z,364.52
2023-01-02T09:13:43.552Z,415.90
2023-01-02T09:16:32.088Z,432.70
2023-01-02T09:19:21.032Z,408.55
2023-01-02T09:22:10.279Z,416.00
2023-01-02T09:24:58.464Z,423.08
2023-01-02T09:27:41.203Z,428.33
2023-01-02T09:30:29.442Z,419.88
2023-01-02T09:33:12.127Z,383.50
2023-01-02T09:36:00.384Z,369.80
2023-01-02T09:38:43.222Z,349.38
2023-01-02T09:42:02.789Z,360.80
2023-01-02T09:45:12.083Z,317.13
2023-01-02T09:48:16.984Z,259.40
2023-01-02T09:51:07.956Z,264.77
2023-01-02T09:53:50.460Z,284.38
2023-01-02T09:56:45.204Z,254.63
2023-01-02T09:59:40.509Z,215.75
2023-01-02T10:02:53.275Z,211.77
2023-01-02T10:05:56.396Z,181.90
2023-01-02T10:09:15.010Z,188.75
2023-01-02T10:12:18.534Z,178.18
2023-01-02T10:15:12.088Z,180.63
2023-01-02T10:17:59.413Z,177.77
2023-01-02T10:20:53.163Z,178.55
2023-01-02T10:23:45.429Z,226.07
2023-01-02T10:26:40.180Z,216.55
2023-01-02T10:29:47.370Z,250.73
2023-01-02T10:32:38.275Z,250.15
2023-01-02T10:35:30.375Z,281.52
2023-01-02T10:38:22.050Z,290.70
2023-01-02T10:41:04.460Z,323.38
2023-01-02T10:44:01.276Z,304.05
2023-01-02T10:46:45.516Z,308.42
2023-01-02T10:49:35.556Z,325.55
2023-01-02T10:52:38.429Z,336.10
2023-01-02T10:55:39.182Z,352.43
2023-01-02T10:58:32.422Z,338.50
2023-01-02T11:01:27.345Z,356.27
2023-01-02T11:04:10.851Z,355.63
2023-01-02T11:07:10.096Z,353.70
2023-01-02T11:10:03.443Z,346.30
2023-01-02T11:12:56.213Z,362.57
2023-01-02T11:15:39.385Z,382.80
2023-01-02T11:18:35.213Z,380.23
2023-01-02T11:21:18.431Z,387.42
2023-01-02T11:24:23.237Z,384.13
2023-01-02T11:27:10.401Z,376.08
2023-01-02T11:29:59.225Z,383.58
2023-01-02T11:32:47.479Z,380.35
2023-01-02T11:35:54.089Z,389.13
2023-01-02T11:38:48.451Z,368.55
2023-01-02T11:42:05.090Z,360.85
2023-01-02T11:45:15.434Z,386.38
2023-01-02T11:48:12.139Z,331.45
2023-01-02T11:51:01.462Z,270.58
2023-01-02T11:53:49.497Z,272.35
2023-01-02T11:56:37.657Z,258.55
2023-01-02T11:59:31.172Z,240.90
2023-01-02T12:02:22.341Z,232.48
2023-01-02T12:05:11.143Z,227.38
2023-01-02T12:08:10.529Z,225.05
2023-01-02T12:11:18.144Z,230.85
2023-01-02T12:14:31.469Z,230.65
2023-01-02T12:17:36.236Z,217.15
2023-01-02T12:20:51.401Z,221.45
2023-01-02T12:23:55.143Z,217.98
2023-01-02T12:26:50.040Z,224.25
2023-01-02T12:30:10.330Z,218.93
2023-01-02T12:33:13.341Z,209.07
2023-01-02T12:36:34.991Z,216.50
2023-01-02T12:39:58.347Z,236.13
2023-01-02T12:43:17.040Z,223.23
2023-01-02T12:46:34.433Z,226.68
2023-01-02T12:49:41.187Z,232.20
2023-01-02T12:52:44.477Z,232.68
2023-01-02T12:55:48.194Z,228.25
2023-01-02T13:02:23.165Z,249.13
2023-01-02T13:05:25.013Z,252.57
2023-01-02T13:08:14.365Z,255.13
2023-01-02T13:11:08.980Z,252.32
2023-01-02T13:13:51.431Z,257.00
2023-01-02T13:16:40.183Z,262.58
2023-01-02T13:19:59.343Z,273.80
2023-01-02T13:22:55.371Z,280.83
2023-01-02T13:25:47.136Z,277.95
2023-01-02T13:28:29.351Z,266.50
2023-01-02T13:31:45.341Z,318.08
2023-01-02T13:34:25.140Z,385.30
2023-01-02T13:37:17.025Z,345.50
2023-01-02T13:40:12.140Z,301.75
2023-01-02T13:43:00.148Z,408.38
2023-01-02T13:45:57.143Z,327.88
2023-01-02T13:49:00.940Z,303.98
2023-01-02T13:54:51.151Z,323.33
2023-01-02T13:57:41.106Z,334.77
2023-01-02T14:00:23.442Z,309.52
2023-01-02T14:03:32.141Z,435.57
2023-01-02T14:06:41.373Z,588.50
2023-01-02T14:09:32.009Z,366.52
2023-01-02T14:12:21.432Z,338.25
2023-01-02T14:15:11.107Z,319.50
2023-01-02T14:18:13.445Z,334.63
2023-01-02T14:21:04.127Z,347.15
2023-01-02T14:24:17.147Z,380.35
2023-01-02T14:27:14.112Z,475.00
2023-01-02T14:30:09.768Z,370.08
2023-01-02T14:33:01.400Z,310.20
2023-01-02T14:35:46.035Z,312.42
2023-01-02T14:38:45.401Z,342.80
2023-01-02T14:42:17.011Z,401.73
2023-01-02T14:45:12.514Z,341.38
2023-01-02T14:48:02.155Z,559.15
2023-01-02T14:50:54.442Z,367.05
2023-01-02T14:53:42.150Z,488.58
2023-01-02T14:56:49.098Z,358.27
2023-01-02T14:59:51.167Z,347.88
2023-01-02T15:02:46.624Z,433.02
2023-01-02T15:05:44.068Z,323.80
2023-01-02T15:08:44.066Z,328.20
2023-01-02T15:11:45.985Z,311.17
2023-01-02T15:14:35.028Z,293.75
2023-01-02T15:17:29.417Z,276.20
2023-01-02T15:20:12.019Z,279.02
2023-01-02T15:23:09.136Z,270.48
2023-01-02T15:26:33.300Z,295.58
2023-01-02T15:29:14.766Z,329.50
2023-01-02T15:32:07.058Z,309.38
2023-01-02T15:34:52.063Z,325.83
2023-01-02T15:37:40.971Z,388.55
2023-01-02T15:40:35.371Z,506.08
2023-01-02T15:43:42.984Z,359.38
2023-01-02T15:46:33.106Z,324.13
2023-01-02T15:49:29.944Z,320.67
2023-01-02T15:52:33.022Z,401.00
2023-01-02T15:55:26.561Z,368.50
2023-01-02T15:58:43.063Z,311.48
2023-01-02T16:01:27.693Z,362.85
2023-01-02T16:04:40.076Z,365.70
2023-01-02T16:07:30.578Z,465.45
2023-01-02T16:10:27.088Z,442.02
2023-01-02T16:13:31.731Z,533.97
2023-01-02T16:16:22.154Z,424.90
2023-01-02T16:19:09.414Z,435.60
2023-01-02T16:22:08.157Z,473.65
2023-01-02T16:25:29.181Z,564.25
2023-01-02T16:28:35.034Z,470.17
2023-01-02T16:31:25.542Z,502.45
2023-01-02T16:34:33.128Z,409.55
2023-01-02T16:37:24.429Z,478.77
2023-01-02T16:41:01.104Z,531.05
2023-01-02T16:43:44.094Z,375.98
2023-01-02T16:46:33.028Z,422.92
2023-01-02T16:49:31.347Z,452.00
2023-01-02T16:52:14.083Z,430.83
2023-01-02T16:55:02.306Z,491.02
2023-01-02T16:57:44.148Z,415.85
2023-01-02T17:00:36.980Z,376.30
2023-01-02T17:03:38.044Z,500.50
2023-01-02T17:06:27.991Z,405.00
2023-01-02T17:09:10.597Z,423.92
2023-01-02T17:12:08.077Z,462.75
2023-01-02T17:14:50.320Z,501.45
2023-01-02T17:17:38.933Z,503.08
2023-01-02T17:20:29.060Z,504.80
2023-01-02T17:23:11.580Z,458.02
2023-01-02T17:26:01.061Z,492.30
2023-01-02T17:28:43.337Z,480.23
2023-01-02T17:31:31.979Z,445.77
2023-01-02T17:34:21.207Z,451.33
2023-01-02T17:37:03.589Z,422.75
2023-01-02T17:39:54.155Z,408.90
2023-01-02T17:42:36.609Z,407.65
2023-01-02T17:45:25.007Z,477.75
2023-01-02T17:48:31.134Z,536.38
2023-01-02T17:51:20.349Z,434.83
2023-01-02T17:54:03.993Z,869.90
2023-01-02T17:56:53.457Z,548.22
2023-01-02T17:59:36.132Z,518.00
2023-01-02T18:02:26.678Z,520.22
2023-01-02T18:05:10.010Z,450.70
2023-01-02T18:07:59.091Z,376.67
2023-01-02T18:10:47.043Z,455.65
2023-01-02T18:13:36.132Z,331.25
2023-01-02T18:16:22.274Z,241.68
2023-01-02T18:19:13.121Z,301.20
2023-01-02T18:21:56.527Z,242.98
2023-01-02T18:24:45.076Z,292.67
2023-01-02T18:27:36.908Z,242.10
2023-01-02T18:30:29.147Z,280.90
2023-01-02T18:33:27.105Z,243.63
2023-01-02T18:36:28.091Z,281.48
2023-01-02T18:39:31.999Z,242.52
2023-01-02T18:45:07.378Z,343.05
2023-01-02T18:48:05.127Z,314.02
2023-01-02T18:51:12.041Z,257.88
2023-01-02T18:54:02.491Z,359.02
2023-01-02T18:56:45.967Z,365.73
2023-01-02T18:59:46.073Z,345.70
2023-01-02T19:02:54.896Z,332.67
2023-01-02T19:05:47.043Z,285.17
2023-01-02T19:08:38.826Z,368.58
2023-01-02T19:12:02.026Z,275.63
2023-01-02T19:14:52.043Z,455.38
2023-01-02T19:17:44.911Z,333.50
2023-01-02T19:20:34.389Z,346.67
2023-01-02T19:23:39.052Z,389.40
2023-01-02T19:26:42.330Z,319.33
2023-01-02T19:29:46.027Z,475.63
2023-01-02T19:32:37.969Z,427.63
2023-01-02T19:35:44.273Z,267.83
2023-01-02T19:38:37.947Z,352.58
2023-01-02T19:41:40.206Z,320.10
2023-01-02T19:44:28.965Z,356.75
2023-01-02T19:47:11.388Z,381.15
2023-01-02T19:50:06.949Z,365.05
2023-01-02T19:52:56.012Z,362.52
2023-01-02T19:55:38.373Z,372.50
2023-01-02T19:58:27.110Z,305.35
2023-01-02T20:01:09.384Z,237.82
2023-01-02T20:03:58.078Z,261.63
2023-01-02T20:06:40.294Z,289.58
2023-01-02T20:09:32.935Z,240.70
2023-01-02T20:12:39.911Z,396.25
2023-01-02T20:15:31.420Z,242.43
2023-01-02T20:18:14.005Z,264.67
2023-01-02T20:21:02.360Z,244.75
2023-01-02T20:23:44.944Z,248.48
2023-01-02T20:26:33.366Z,291.58
2023-01-02T20:29:15.998Z,260.63
2023-01-02T20:32:05.500Z,215.13
2023-01-02T20:34:47.945Z,361.52
2023-01-02T20:37:36.388Z,301.95
2023-01-02T20:40:20.049Z,284.63
2023-01-02T20:45:51.021Z,264.25
2023-01-02T20:48:40.351Z,283.90
2023-01-02T20:51:38.002Z,244.38
2023-01-02T20:54:27.416Z,231.35
2023-01-02T20:57:10.089Z,238.07
2023-01-02T20:59:58.966Z,322.58
2023-01-02T21:02:48.139Z,227.85
2023-01-02T21:05:36.988Z,223.05
2023-01-02T21:08:25.937Z,229.43
2023-01-02T21:11:08.729Z,190.45
2023-01-02T21:13:58.285Z,253.10
2023-01-02T21:16:40.320Z,200.32
2023-01-02T21:19:28.992Z,191.52
2023-01-02T21:22:18.349Z,215.52
2023-01-02T21:25:00.137Z,207.95
2023-01-02T21:27:48.333Z,243.52
2023-01-02T21:30:30.996Z,224.90
2023-01-02T21:33:22.367Z,208.32
2023-01-02T21:36:08.614Z,283.35
2023-01-02T21:38:58.289Z,210.80
2023-01-02T21:41:59.003Z,190.63
2023-01-02T21:44:41.347Z,209.05
2023-01-02T21:47:31.970Z,166.45
2023-01-02T21:50:21.084Z,165.77
2023-01-02T21:53:10.020Z,164.98
2023-01-02T21:55:52.178Z,159.23
2023-01-02T21:58:41.063Z,187.68
2023-01-02T22:01:30.072Z,154.77
2023-01-02T22:04:12.376Z,170.57
2023-01-02T22:10:03.406Z,225.18
2023-01-02T22:12:52.077Z,155.82
2023-01-02T22:15:34.413Z,175.40
2023-01-02T22:18:22.901Z,146.10
2023-01-02T22:21:05.239Z,147.88
2023-01-02T22:23:54.399Z,128.77
2023-01-02T22:26:37.275Z,147.35
2023-01-02T22:30:00.345Z,144.18
2023-01-02T22:32:40.979Z,127.95
2023-01-02T22:35:31.350Z,169.63
2023-01-02T22:38:14.054Z,162.70
2023-01-02T22:40:57.220Z,153.80
2023-01-02T22:43:51.052Z,129.82
2023-01-02T22:46:41.799Z,188.98
2023-01-02T22:49:34.996Z,138.70
2023-01-02T22:52:24.327Z,136.02
2023-01-02T22:55:07.030Z,161.57
2023-01-02T22:57:56.313Z,144.38
2023-01-02T23:00:39.049Z,133.85
2023-01-02T23:03:28.258Z,127.93
2023-01-02T23:06:10.921Z,143.00
2023-01-02T23:09:01.328Z,152.55
2023-01-02T23:11:43.965Z,178.00
2023-01-02T23:14:32.359Z,166.35
2023-01-02T23:17:32.956Z,152.57
2023-01-02T23:20:15.296Z,153.90
2023-01-02T23:23:05.013Z,179.27
2023-01-02T23:25:47.646Z,138.52
2023-01-02T23:29:06.012Z,171.38
2023-01-02T23:31:48.245Z,160.25
2023-01-02T23:34:33.912Z,132.02
2023-01-02T23:37:22.352Z,208.60
2023-01-02T23:40:04.970Z,129.85
2023-01-02T23:42:54.002Z,155.32
2023-01-02T23:45:36.513Z,171.93
2023-01-02T23:48:25.966Z,135.93
2023-01-02T23:51:20.784Z,147.07
2023-01-02T23:54:10.006Z,179.77
2023-01-02T23:56:55.290Z,143.65
2023-01-02T23:59:43.988Z,191.40
